Latest Weather Observations for Newcastle Nobbys

IDN60801

Issued at 3:05 pm EDT Thursday 23 October 2014 (issued every 30 minutes, with the page automatically refreshed every 10 minutes)

About weather observations | Map of weather stations | Latest weather observations for NSW | Other Formats
Station Details ID: 061055 Name: NEWCASTLE NOBBYS SIGNAL STATION AWS Lat: -32.92 Lon: 151.80 Height: 33.0 m
Data from the previous 72 hours. | See also: Recent months at Newcastle Nobbys
Date/Time
EDT
Temp
°C
App
Temp
°C
Dew
Point
Rel
Hum
%
Delta-T
°C
Wind Press
QNH
hPa
Press
MSL
hPa
Rain
since 9 am
mm
Dir
 
Spd
km/h
Gust
km/h
Spd
kts
Gust
kts
23/03:00pm 21.9 21.7 17.5 76 2.7 E 15 19 8 10 - - 0.0
23/02:30pm 21.9 21.7 17.7 77 2.6 E 15 19 8 10 - - 0.0
23/02:00pm 22.2 21.9 17.3 74 3.0 E 15 17 8 9 - - 0.0
23/01:30pm 22.2 21.7 16.9 72 3.2 ENE 15 19 8 10 - - 0.0
23/01:00pm 22.1 21.5 16.6 71 3.4 ENE 15 20 8 11 - - 0.0
23/12:30pm 22.9 22.4 16.9 69 3.7 ENE 15 20 8 11 - - 0.0
23/12:00pm 24.0 23.5 16.0 61 4.9 N 13 19 7 10 - - 0.0
23/11:30am 25.7 25.3 15.1 52 6.4 N 11 15 6 8 - - 0.0
23/11:00am 23.5 22.7 15.0 59 5.1 N 13 19 7 10 - - 0.0
23/10:30am 22.4 21.4 14.5 61 4.7 N 13 19 7 10 - - 0.0
23/10:00am 21.3 20.3 14.5 65 4.0 N 13 19 7 10 - - 0.0
23/09:30am 20.4 18.8 13.8 66 3.8 NNW 15 19 8 10 - - 0.0
23/09:00am 18.4 16.9 14.3 77 2.4 NNW 15 20 8 11 - - 0.0
23/08:30am 17.1 15.4 13.6 80 2.0 NNW 15 19 8 10 - - 0.0
23/08:00am 15.6 14.2 13.3 86 1.3 NNW 13 20 7 11 - - 0.0
23/07:30am 14.7 13.1 12.7 88 1.1 N 13 17 7 9 - - 0.0
23/07:00am 14.6 13.1 13.1 91 0.8 N 13 17 7 9 - - 0.0
23/06:30am 14.1 12.9 12.7 91 0.8 N 11 13 6 7 - - 0.0
23/06:00am 14.4 12.9 13.1 92 0.7 N 13 15 7 8 - - 0.0
23/05:30am 14.6 13.9 13.1 91 0.8 N 9 13 5 7 - - 0.0
23/05:00am 15.2 13.9 13.6 90 0.9 N 13 15 7 8 - - 0.0
23/04:30am 15.4 13.9 13.2 87 1.2 N 13 15 7 8 - - 0.0
23/04:00am 15.3 14.1 12.8 85 1.4 N 11 15 6 8 - - 0.0
23/03:30am 15.7 14.6 13.0 84 1.5 N 11 13 6 7 - - 0.0
23/03:00am 15.9 15.5 13.0 83 1.6 N 7 9 4 5 - - 0.0
23/02:30am 15.9 15.6 13.2 84 1.5 N 7 9 4 5 - - 0.0
23/02:00am 15.9 15.2 13.2 84 1.5 NNE 9 11 5 6 - - 0.0
23/01:30am 16.2 15.8 13.1 82 1.7 N 7 11 4 6 - - 0.0
23/01:00am 16.6 16.1 13.7 83 1.6 NNE 9 11 5 6 - - 0.0
23/12:30am 16.8 15.9 13.7 82 1.8 NNE 11 17 6 9 - - 0.0
23/12:00am 16.9 16.3 13.6 81 1.9 NNE 9 13 5 7 - - 0.0
 
Date/Time
EDT
Temp
°C
App
Temp
°C
Dew
Point
Rel
Hum
%
Delta-T
°C
Wind Press
QNH
hPa
Press
MSL
hPa
Rain
since 9 am
mm
Dir
 
Spd
km/h
Gust
km/h
Spd
kts
Gust
kts
22/11:30pm 17.1 15.4 13.6 80 2.0 NNE 15 17 8 9 - - 0.0
22/11:00pm 17.3 16.5 14.0 81 1.9 NE 11 17 6 9 - - 0.0
22/10:30pm 17.6 16.1 14.1 80 2.0 NNE 15 20 8 11 - - 0.0
22/10:00pm 17.5 15.4 13.6 78 2.2 NE 17 22 9 12 - - 0.0
22/09:30pm 17.7 15.5 13.4 76 2.4 NE 17 28 9 15 - - 0.0
22/09:00pm 18.0 15.0 13.7 76 2.4 NE 22 32 12 17 - - 0.0
22/08:30pm 18.2 14.4 13.7 75 2.6 NE 26 33 14 18 - - 0.0
22/08:00pm 18.4 15.1 13.9 75 2.6 NE 24 30 13 16 - - 0.0
22/07:30pm 18.6 16.0 13.9 74 2.7 NE 20 26 11 14 - - 0.0
22/07:00pm 18.6 16.0 13.7 73 2.8 ENE 20 26 11 14 - - 0.0
22/06:30pm 18.9 15.4 13.5 71 3.1 ENE 24 32 13 17 - - 0.0
22/06:00pm 19.2 15.0 13.6 70 3.2 ENE 28 33 15 18 - - 0.0
22/05:30pm 19.3 14.2 13.0 67 3.6 ENE 32 37 17 20 - - 0.0
22/05:00pm 19.2 13.8 12.9 67 3.6 ENE 33 39 18 21 - - 0.0
22/04:30pm 19.4 14.1 12.4 64 3.9 ENE 32 39 17 21 - - 0.0
22/04:00pm 19.5 14.1 12.3 63 4.0 E 32 37 17 20 - - 0.0
22/03:30pm 19.6 14.7 12.4 63 4.0 E 30 37 16 20 - - 0.0
22/03:00pm 19.6 14.8 12.8 65 3.8 E 30 35 16 19 - - 0.0
22/02:30pm 19.7 15.2 12.5 63 4.0 E 28 33 15 18 - - 0.0
22/02:00pm 19.9 16.3 12.9 64 4.0 E 24 30 13 16 - - 0.0
22/01:30pm 20.0 16.4 13.0 64 4.0 E 24 28 13 15 - - 0.0
22/01:00pm 19.8 16.8 12.6 63 4.1 E 20 24 11 13 - - 0.0
22/12:30pm 19.8 16.6 13.0 65 3.9 ESE 22 26 12 14 - - 0.0
22/12:00pm 19.4 16.5 12.4 64 3.9 ESE 19 20 10 11 - - 0.0
22/11:30am 19.6 17.6 12.6 64 3.9 ESE 15 17 8 9 - - 0.0
22/11:00am 19.6 17.9 13.5 68 3.5 ESE 15 17 8 9 - - 0.0
22/10:30am 19.2 18.5 13.2 68 3.4 ESE 9 13 5 7 - - 0.0
22/10:00am 18.9 18.7 12.9 68 3.4 E 6 11 3 6 - - 0.0
22/09:30am 18.8 19.1 13.4 71 3.1 NNE 4 6 2 3 - - 0.0
22/09:00am 18.0 18.2 12.9 72 2.9 N 4 7 2 4 - - 0.0
22/08:30am 16.8 16.3 12.5 76 2.4 N 7 11 4 6 - - 0.0
22/08:00am 16.6 15.6 12.4 76 2.3 NNE 9 15 5 8 - - 0.0
22/07:30am 16.3 15.2 13.2 82 1.7 ENE 11 13 6 7 - - 0.0
22/07:00am 15.9 13.0 12.8 82 1.7 E 20 24 11 13 - - 0.0
22/06:30am 15.7 13.6 12.3 80 1.9 E 15 19 8 10 - - 0.0
22/06:00am 15.6 14.3 12.4 81 1.8 NNE 11 15 6 8 - - 0.0
22/05:30am 15.1 14.9 11.9 81 1.7 ENE 4 7 2 4 - - 0.0
22/05:00am 14.7 13.9 11.8 83 1.6 N 7 11 4 6 - - 0.0
22/04:30am 14.9 14.2 11.9 82 1.6 N 7 11 4 6 - - 0.0
22/04:00am 14.8 12.2 11.9 83 1.6 N 17 20 9 11 - - 0.0
22/03:30am 15.7 14.4 11.1 74 2.5 N 9 13 5 7 - - 0.0
22/03:00am 16.4 15.1 11.1 71 2.8 ENE 9 13 5 7 - - 0.0
22/02:30am 16.5 14.6 10.6 68 3.1 ENE 11 15 6 8 - - 0.0
22/02:00am 16.6 15.8 10.9 69 3.1 NE 6 9 3 5 - - 0.0
22/01:30am 16.5 15.1 9.7 64 3.6 ENE 7 11 4 6 - - 0.0
22/01:00am 16.5 15.0 10.6 68 3.1 NE 9 15 5 8 - - 0.0
22/12:30am 16.7 15.4 9.1 61 3.9 NE 6 11 3 6 - - 0.0
22/12:00am 16.3 15.8 9.3 63 3.6 N 2 6 1 3 - - 0.0
 
Date/Time
EDT
Temp
°C
App
Temp
°C
Dew
Point
Rel
Hum
%
Delta-T
°C
Wind Press
QNH
hPa
Press
MSL
hPa
Rain
since 9 am
mm
Dir
 
Spd
km/h
Gust
km/h
Spd
kts
Gust
kts
21/11:30pm 16.2 14.3 8.9 62 3.8 NNE 9 11 5 6 - - 0.0
21/11:00pm 16.4 14.2 9.3 63 3.7 NE 11 15 6 8 - - 0.0
21/10:30pm 16.6 13.1 10.9 69 3.1 E 20 24 11 13 - - 0.0
21/10:00pm 16.4 13.6 10.0 66 3.4 E 15 19 8 10 - - 0.0
21/09:30pm 16.3 13.6 10.4 68 3.1 E 15 20 8 11 - - 0.0
21/09:00pm 16.3 12.7 9.9 66 3.4 E 19 24 10 13 - - 0.0
21/08:30pm 16.5 12.7 9.2 62 3.8 E 19 22 10 12 - - 0.0
21/08:00pm 16.4 13.0 10.7 69 3.0 E 19 24 10 13 - - 0.0
21/07:30pm 16.1 12.4 10.2 68 3.1 E 20 24 11 13 - - 0.0
21/07:00pm 16.3 12.9 10.4 68 3.1 ESE 19 22 10 12 - - 0.0
21/06:30pm 16.8 13.0 9.2 61 3.9 ESE 19 22 10 12 - - 0.0
21/06:00pm 17.3 13.8 8.7 57 4.4 ESE 17 19 9 10 - - 0.0
21/05:30pm 17.4 14.4 9.3 59 4.2 ESE 15 19 8 10 - - 0.0
21/05:00pm 17.6 14.2 9.2 58 4.4 ESE 17 20 9 11 - - 0.0
21/04:30pm 17.6 13.9 10.2 62 3.9 E 20 24 11 13 - - 0.0
21/04:00pm 17.6 14.2 9.2 58 4.4 E 17 20 9 11 - - 0.0
21/03:30pm 18.0 14.8 9.9 59 4.3 E 17 20 9 11 - - 0.0
21/03:00pm 17.9 14.1 9.0 56 4.6 ESE 19 20 10 11 - - 0.0
21/02:30pm 18.0 14.3 10.1 60 4.2 E 20 24 11 13 - - 0.0
21/02:00pm 18.3 15.6 9.1 55 4.8 E 13 17 7 9 - - 0.0
21/01:30pm 17.6 14.2 9.2 58 4.4 ESE 17 20 9 11 - - 0.0
21/01:00pm 17.2 13.3 9.6 61 4.0 ESE 20 26 11 14 - - 0.0
21/12:30pm 18.0 15.3 8.8 55 4.8 ESE 13 17 7 9 - - 0.0
21/12:00pm 17.9 14.6 8.2 53 5.0 ESE 15 20 8 11 - - 0.0
21/11:30am 17.9 14.5 9.0 56 4.6 E 17 20 9 11 - - 0.0
21/11:00am 17.7 14.5 8.3 54 4.8 ESE 15 19 8 10 - - 0.0
21/10:30am 17.5 13.8 8.1 54 4.8 ESE 17 22 9 12 - - 0.0
21/10:00am 17.1 12.5 8.0 55 4.6 ESE 22 26 12 14 - - 0.0
21/09:30am 16.9 12.0 8.3 57 4.4 ESE 24 28 13 15 - - 0.0
21/09:00am 16.8 12.2 8.0 56 4.5 ESE 22 28 12 15 - - 0.2
21/08:30am 16.8 12.7 8.5 58 4.2 ESE 20 26 11 14 - - 0.2
21/08:00am 16.8 12.5 9.2 61 3.9 SE 22 26 12 14 - - 0.2
21/07:30am 16.6 11.8 8.8 60 4.0 SE 24 33 13 18 - - 0.2
21/07:00am 16.7 12.0 9.1 61 3.9 SE 24 32 13 17 - - 0.2
21/06:30am 16.7 12.0 9.1 61 3.9 SE 24 30 13 16 - - 0.2
21/06:00am 16.8 12.5 9.2 61 3.9 SE 22 28 12 15 - - 0.2
21/05:30am 16.6 12.3 9.5 63 3.7 ESE 22 32 12 17 - - 0.2
21/05:00am 16.5 12.5 9.2 62 3.8 ESE 20 26 11 14 - - 0.2
21/04:30am 16.3 12.0 9.5 64 3.5 ESE 22 30 12 16 - - 0.2
21/04:00am 16.6 12.3 10.7 68 3.1 ESE 24 32 13 17 - - 0.2
21/03:30am 16.0 11.3 10.7 71 2.8 SE 26 35 14 19 - - 0.2
21/03:00am 16.9 13.0 10.7 67 3.3 ESE 22 26 12 14 - - 0.2
21/02:30am 16.6 13.0 10.5 67 3.2 ESE 20 26 11 14 - - 0.2
21/02:00am 16.9 13.1 11.0 68 3.2 E 22 28 12 15 - - 0.2
21/01:30am 17.0 13.5 10.8 67 3.3 ESE 20 24 11 13 - - 0.2
21/01:00am 17.0 13.0 10.6 66 3.4 ESE 22 26 12 14 - - 0.2
21/12:30am 17.0 12.7 10.8 67 3.3 ESE 24 26 13 14 - - 0.2
21/12:00am 17.0 12.3 10.8 67 3.3 ESE 26 32 14 17 - - 0.2
 
Date/Time
EDT
Temp
°C
App
Temp
°C
Dew
Point
Rel
Hum
%
Delta-T
°C
Wind Press
QNH
hPa
Press
MSL
hPa
Rain
since 9 am
mm
Dir
 
Spd
km/h
Gust
km/h
Spd
kts
Gust
kts
20/11:30pm 17.2 12.5 10.8 66 3.4 ESE 26 30 14 16 - - 0.2
20/11:00pm 17.3 12.1 11.6 69 3.1 ESE 30 33 16 18 - - 0.2
20/10:30pm 17.1 11.7 10.9 67 3.3 SE 30 35 16 19 - - 0.2
20/10:00pm 17.1 12.3 11.8 71 2.9 SE 28 33 15 18 - - 0.2
20/09:30pm 16.9 12.2 12.0 73 2.7 SE 28 39 15 21 - - 0.2
20/09:00pm 16.9 12.5 11.6 71 2.9 SSE 26 33 14 18 - - 0.2
20/08:30pm 16.5 11.1 12.3 76 2.3 SE 32 39 17 21 - - 0.2
20/08:00pm 17.3 13.0 12.0 71 2.9 SSE 26 32 14 17 - - 0.2
20/07:30pm 17.0 12.6 11.7 71 2.9 SSE 26 35 14 19 - - 0.2
20/07:00pm 16.9 11.9 12.2 74 2.6 SSE 30 37 16 20 - - 0.2
20/06:30pm 17.1 13.1 13.0 77 2.3 SSE 26 37 14 20 - - 0.2
20/06:00pm 16.5 11.3 13.4 82 1.7 SSE 33 41 18 22 - - 0.2
20/05:30pm 16.9 11.4 13.6 81 1.9 S 35 43 19 23 - - 0.2
20/05:00pm 17.7 14.0 14.0 79 2.1 SSE 26 37 14 20 - - 0.2
20/04:30pm 17.0 13.6 13.7 81 1.9 SSE 24 32 13 17 - - 0.2
20/04:00pm 16.7 12.2 15.4 92 0.8 SSE 33 39 18 21 - - 0.2
20/03:30pm 17.6 14.0 15.2 86 1.4 S 28 33 15 18 - - 0.0

Other Formats:

Comma delimited format used in spreadsheet applications
http://www.bom.gov.au/fwo/IDN60801/IDN60801.94774.axf

JavaScript Object Notation format (JSON) in row-major order
http://www.bom.gov.au/fwo/IDN60801/IDN60801.94774.json